• Join FlightAware (Why Join?)
  • Login
  • US Flag 
04:42PM EDT


 

Airport Tracker/Info


-or-


 

Live Flight TrackerFlight Track Log ✈ C-GRJR ✈ 19-Sep-2013 ✈ KLYH - CYSN

Flight Track Log - Related Links

Times and Time Zones

All times are in EDT time to prevent confusion due to time zone crossing. See the C-GRJR flight status page for this flight to view local times or setup timezone preferences in your user account.

Time Position Orientation Groundspeed Altitude Reporting Facility
EDT Latitude Longitude Course Direction KTS MPH feet Rate Location/Type
06:43PM 37.3786 -79.2692 North 177 204 8,000  Level Washington Center
06:44PM 37.4181 -79.2683 North 184 212 9,000 600 Climbing Washington Center
06:45PM 37.4872 -79.2667 North 202 232 9,300 780 Climbing Washington Center
06:46PM 37.8078 -79.1990 North  Level Estimated
06:46PM 37.5456 -79.2667 360° North 223 257 10,600  Level Washington Center
06:47PM 37.6186 -79.2650 North 237 273 11,900 1,200 Climbing Washington Center
06:48PM 37.6833 -79.2631 North 237 273 13,100 960 Climbing Washington Center
06:49PM 37.7606 -79.2642 359° North 263 303 13,900 480 Climbing Washington Center
06:50PM 37.8419 -79.2628 North 275 316 14,100 60 Climbing Washington Center
06:51PM 37.9253 -79.2617 North 286 329 14,100 420 Level Washington Center
06:52PM 38.0067 -79.2631 359° North 291 335 15,000 1,860 Climbing Washington Center
06:53PM 38.0839 -79.2589 North 267 307 17,800 2,100 Climbing Washington Center
06:54PM 38.1486 -79.2594 360° North 244 281 19,200 1,500 Climbing Washington Center
06:55PM 38.2131 -79.2597 360° North 234 269 20,900 1,620 Climbing Washington Center
06:56PM 38.2717 -79.2575 North 234 269 22,500 1,500 Climbing Washington Center
06:57PM 38.3383 -79.2553 North 234 269 23,900 1,440 Climbing Washington Center
06:58PM 38.4072 -79.2589 358° North 234 269 25,400 1,380 Climbing Washington Center
06:59PM 38.4761 -79.2542 North 234 269 26,800 780 Climbing Washington Center
07:00PM 38.5617 -79.2531 North 254 292 27,000 60 Climbing Washington Center
07:01PM 38.6492 -79.2522 360° North 287 330 27,000  Level Washington Center
07:02PM 38.7450 -79.2542 359° North 320 368 27,000  Level Washington Center
07:03PM 38.8392 -79.2483 North 333 383 27,000  Level Washington Center
07:04PM 38.9350 -79.2450 North 339 390 27,000  Level Washington Center
07:05PM 39.0331 -79.2447 360° North 345 397 27,000  Level Washington Center
07:06PM 39.1208 -79.2408 North 345 397 27,000  Level Washington Center
07:07PM 39.2186 -79.2406 360° North 345 397 27,000  Level Washington Center
07:08PM 39.3147 -79.2372 North 345 397 27,000  Level Washington Center
07:10PM 39.4642 -79.2386 360° North 351 404 27,000  Level Cleveland Center
07:11PM 39.5806 -79.2369 North 354 407 27,000  Level Cleveland Center
07:12PM 39.6781 -79.2342 North 354 407 27,000  Level Cleveland Center
07:13PM 39.7739 -79.2325 North 349 402 27,000  Level Cleveland Center
07:14PM 39.8703 -79.2311 North 348 400 27,000  Level Cleveland Center
07:15PM 39.9672 -79.2281 North 350 403 27,000  Level Cleveland Center
07:16PM 40.0753 -79.2267 North 349 402 27,000  Level Cleveland Center
07:17PM 40.1719 -79.2250 North 350 403 27,000  Level Cleveland Center
07:18PM 40.2678 -79.2225 North 347 399 27,000  Level Cleveland Center
07:19PM 40.3642 -79.2208 North 347 399 27,000  Level Cleveland Center
07:20PM 40.4811 -79.2189 North 350 403 27,000  Level Cleveland Center
07:21PM 40.5781 -79.2178 360° North 351 404 27,000  Level Cleveland Center
07:22PM 40.6808 -79.2164 North 346 398 27,000  Level Cleveland Center
07:23PM 40.7781 -79.2139 North 350 403 27,000  Level Cleveland Center
07:24PM 40.8756 -79.2119 North 351 404 27,000  Level Cleveland Center
07:25PM 40.9733 -79.2103 North 352 405 27,000  Level Cleveland Center
07:26PM 41.0708 -79.2086 North 351 404 27,000  Level Cleveland Center
07:27PM 41.1819 -79.2064 North 352 405 27,000  Level Cleveland Center
07:28PM 41.2800 -79.2078 359° North 353 406 27,000  Level Cleveland Center
07:29PM 41.3781 -79.2036 North 352 405 27,000  Level Cleveland Center
07:30PM 41.4767 -79.2017 North 355 409 27,000  Level Cleveland Center
07:31PM 41.5736 -79.2006 360° North 350 403 27,000  Level Cleveland Center
07:32PM 41.6903 -79.1978 North 354 407 27,000 -360 Level Cleveland Center
07:33PM 41.7892 -79.1967 360° North 355 409 26,300 -1,020 Descending Cleveland Center
07:34PM 41.8919 -79.1944 North 367 422 25,000 -1,260 Descending Cleveland Center
07:35PM 41.9889 -79.1919 North 351 404 23,700 -1,260 Descending Cleveland Center
07:36PM 42.0814 -79.1908 North 336 387 22,400 -1,380 Descending Cleveland Center
07:37PM 42.1739 -79.1894 North 333 383 20,900 -1,920 Descending Cleveland Center
07:38PM 42.2892 -79.1869 North 347 399 18,500 -2,220 Descending Cleveland Center
07:39PM 42.3808 -79.1856 North 332 382 16,400 -2,580 Descending Cleveland Center
07:40PM 42.4736 -79.1839 North 324 373 13,200 -2,640 Descending Cleveland Center
07:42PM 42.5608 -79.1814 North 313 360 11,000 -1,380 Descending Cleveland Center
07:43PM 42.6442 -79.1803 North 303 349 10,400 -1,140 Descending Cleveland Center
07:44PM 42.7342 -79.1789 North 289 333 8,700 -1,860 Descending Cleveland Center
07:45PM 42.8139 -79.1775 North 278 320 6,600 -2,040 Descending Cleveland Center
07:46PM 42.8922 -79.1761 North 271 312 4,500 -1,260 Descending Cleveland Center
07:47PM 42.9633 -79.1742 North 250 288 4,000 -540 Descending Cleveland Center
07:48PM 43.0122 -79.1750 359° North 194 223 3,500 -900 Descending Cleveland Center
07:49PM 43.0564 -79.1831 352° North 160 184 2,200 -840 Descending Cleveland Center
07:50PM 43.1000 -79.1983 346° North 157 181 1,800 -300 Descending Cleveland Center
07:51PM 43.1447 -79.2197 341° North 162 186 1,600 -540 Descending Cleveland Center
07:52PM 43.1756 -79.2017 23° Northeast 131 151 800 -600 Descending Cleveland Center
07:53PM 43.1833 -79.1333 81° East 120 138 300 -480 Descending Toronto Center